createdAt,value
2023-05-19T00:01:17.546Z,16.43
2023-05-19T00:04:01.815Z,16.40
2023-05-19T00:06:31.794Z,16.36
2023-05-19T00:09:05.381Z,16.34
2023-05-19T00:11:36.041Z,16.30
2023-05-19T00:14:05.917Z,16.28
2023-05-19T00:16:33.395Z,16.26
2023-05-19T00:19:02.612Z,16.23
2023-05-19T00:21:30.101Z,16.21
2023-05-19T00:23:57.700Z,16.19
2023-05-19T00:26:26.871Z,16.17
2023-05-19T00:28:54.324Z,16.15
2023-05-19T00:31:21.260Z,16.12
2023-05-19T00:33:48.083Z,16.10
2023-05-19T00:36:14.900Z,16.08
2023-05-19T00:38:41.728Z,16.07
2023-05-19T00:41:08.551Z,16.05
2023-05-19T00:43:35.422Z,16.06
2023-05-19T00:46:02.718Z,16.05
2023-05-19T00:48:29.712Z,16.03
2023-05-19T00:51:02.236Z,16.01
2023-05-19T00:53:30.088Z,16.00
2023-05-19T00:55:57.642Z,15.97
2023-05-19T00:58:29.169Z,15.95
2023-05-19T01:01:04.208Z,15.94
2023-05-19T01:03:35.108Z,15.92
2023-05-19T01:06:07.173Z,15.89
2023-05-19T01:08:38.658Z,15.87
2023-05-19T01:11:07.027Z,15.83
2023-05-19T01:13:35.705Z,15.82
2023-05-19T01:16:16.314Z,15.81
2023-05-19T01:19:15.973Z,15.80
2023-05-19T01:22:07.392Z,15.75
2023-05-19T01:25:11.307Z,15.73
2023-05-19T01:28:05.093Z,15.72
2023-05-19T01:30:41.249Z,15.70
2023-05-19T01:33:14.306Z,15.67
2023-05-19T01:35:43.300Z,15.65
2023-05-19T01:38:13.845Z,15.65
2023-05-19T01:40:41.939Z,15.64
2023-05-19T01:43:13.223Z,15.63
2023-05-19T01:45:40.507Z,15.63
2023-05-19T01:48:10.888Z,15.62
2023-05-19T01:50:38.153Z,15.62
2023-05-19T01:53:05.052Z,15.61
2023-05-19T01:55:32.097Z,15.61
2023-05-19T01:58:22.895Z,15.57
2023-05-19T02:01:13.170Z,15.54
2023-05-19T02:04:13.442Z,15.51
2023-05-19T02:07:17.273Z,15.45
2023-05-19T02:10:05.473Z,15.42
2023-05-19T02:12:36.371Z,15.41
2023-05-19T02:15:38.635Z,15.38
2023-05-19T02:18:06.323Z,15.34
2023-05-19T02:20:33.572Z,15.33
2023-05-19T02:23:00.652Z,15.33
2023-05-19T02:25:27.466Z,15.35
2023-05-19T02:27:54.971Z,15.34
2023-05-19T02:30:21.801Z,15.34
2023-05-19T02:32:48.672Z,15.35
2023-05-19T02:35:15.689Z,15.36
2023-05-19T02:37:42.554Z,15.35
2023-05-19T02:40:09.677Z,15.36
2023-05-19T02:42:36.478Z,15.35
2023-05-19T02:45:03.426Z,15.35
2023-05-19T02:47:30.286Z,15.34
2023-05-19T02:49:57.098Z,15.35
2023-05-19T02:52:23.941Z,15.35
2023-05-19T02:54:51.447Z,15.33
2023-05-19T02:57:18.282Z,15.32
2023-05-19T02:59:45.114Z,15.30
2023-05-19T03:02:12.190Z,15.29
2023-05-19T03:04:42.032Z,15.28
2023-05-19T03:07:10.215Z,15.26
2023-05-19T03:09:42.679Z,15.26
2023-05-19T03:12:09.673Z,15.23
2023-05-19T03:14:39.278Z,15.22
2023-05-19T03:17:10.189Z,15.20
2023-05-19T03:19:37.128Z,15.17
2023-05-19T03:22:04.278Z,15.16
2023-05-19T03:24:31.522Z,15.15
2023-05-19T03:26:58.346Z,15.13
2023-05-19T03:29:25.175Z,15.12
2023-05-19T03:31:52.197Z,15.10
2023-05-19T03:34:19.036Z,15.09
2023-05-19T03:36:45.968Z,15.08
2023-05-19T03:39:12.807Z,15.07
2023-05-19T03:41:39.614Z,15.07
2023-05-19T03:44:06.463Z,15.05
2023-05-19T03:46:33.287Z,15.06
2023-05-19T03:49:00.145Z,15.04
2023-05-19T03:51:28.534Z,15.05
2023-05-19T03:53:55.852Z,15.04
2023-05-19T03:56:24.988Z,15.02
2023-05-19T03:58:51.831Z,15.02
2023-05-19T04:01:18.689Z,15.02
2023-05-19T04:03:45.647Z,15.01
2023-05-19T04:06:12.922Z,14.99
2023-05-19T04:08:40.134Z,15.00
2023-05-19T04:11:06.952Z,15.02
2023-05-19T04:13:34.793Z,15.03
2023-05-19T04:16:01.882Z,15.05
2023-05-19T04:18:29.363Z,15.08
2023-05-19T04:20:56.397Z,15.10
2023-05-19T04:23:23.529Z,15.13
2023-05-19T04:25:50.572Z,15.15
2023-05-19T04:28:18.114Z,15.19
2023-05-19T04:30:46.522Z,15.21
2023-05-19T04:33:13.725Z,15.22
2023-05-19T04:35:40.735Z,15.23
2023-05-19T04:38:07.619Z,15.26
2023-05-19T04:40:34.706Z,15.26
2023-05-19T04:43:02.263Z,15.27
2023-05-19T04:45:33.065Z,15.28
2023-05-19T04:48:00.195Z,15.27
2023-05-19T04:50:28.588Z,15.29
2023-05-19T04:52:55.810Z,15.30
2023-05-19T04:55:23.020Z,15.29
2023-05-19T04:57:49.856Z,15.27
2023-05-19T05:00:17.204Z,15.26
2023-05-19T05:02:46.904Z,15.27
2023-05-19T05:05:13.907Z,15.24
2023-05-19T05:07:40.709Z,15.27
2023-05-19T05:10:08.477Z,15.27
2023-05-19T05:12:35.863Z,15.29
2023-05-19T05:15:03.121Z,15.31
2023-05-19T05:17:30.284Z,15.34
2023-05-19T05:19:57.451Z,15.37
2023-05-19T05:22:27.033Z,15.42
2023-05-19T05:24:54.280Z,15.45
2023-05-19T05:27:21.368Z,15.50
2023-05-19T05:29:48.249Z,15.54
2023-05-19T05:32:16.936Z,15.57
2023-05-19T05:34:43.919Z,15.61
2023-05-19T05:37:13.101Z,15.67
2023-05-19T05:39:40.905Z,15.71
2023-05-19T05:42:09.132Z,15.73
2023-05-19T05:44:35.968Z,15.75
2023-05-19T05:47:03.952Z,15.79
2023-05-19T05:49:31.170Z,15.83
2023-05-19T05:52:05.648Z,15.87
2023-05-19T05:54:33.879Z,15.89
2023-05-19T05:57:02.475Z,15.94
2023-05-19T05:59:29.352Z,15.94
2023-05-19T06:01:56.320Z,15.95
2023-05-19T06:04:23.181Z,15.97
2023-05-19T06:06:50.069Z,16.01
2023-05-19T06:09:17.009Z,15.99
2023-05-19T06:11:43.917Z,16.00
2023-05-19T06:14:10.796Z,16.03
2023-05-19T06:16:37.855Z,16.08
2023-05-19T06:19:04.902Z,16.13
2023-05-19T06:21:31.889Z,16.19
2023-05-19T06:23:58.739Z,16.21
2023-05-19T06:26:26.403Z,16.21
2023-05-19T06:28:53.282Z,16.20
2023-05-19T06:31:20.157Z,16.20
2023-05-19T06:33:47.045Z,16.18
2023-05-19T06:36:13.970Z,16.16
2023-05-19T06:38:40.929Z,16.12
2023-05-19T06:41:07.963Z,16.08
2023-05-19T06:43:34.759Z,16.08
2023-05-19T06:46:01.619Z,16.09
2023-05-19T06:48:28.631Z,16.08
2023-05-19T06:50:55.990Z,16.07
2023-05-19T06:53:22.834Z,16.07
2023-05-19T06:55:59.212Z,16.10
2023-05-19T06:58:27.043Z,16.16
2023-05-19T07:00:53.915Z,16.22
2023-05-19T07:03:20.882Z,16.29
2023-05-19T07:05:47.911Z,16.37
2023-05-19T07:08:14.750Z,16.45
2023-05-19T07:10:41.566Z,16.51
2023-05-19T07:13:08.418Z,16.58
2023-05-19T07:15:35.424Z,16.65
2023-05-19T07:18:02.292Z,16.73
2023-05-19T07:20:29.119Z,16.83
2023-05-19T07:22:55.984Z,16.89
2023-05-19T07:25:22.869Z,16.96
2023-05-19T07:27:49.751Z,17.07
2023-05-19T07:30:16.597Z,17.17
2023-05-19T07:32:43.438Z,17.25
2023-05-19T07:35:10.530Z,17.25
2023-05-19T07:37:37.440Z,17.28
2023-05-19T07:40:06.710Z,17.32
2023-05-19T07:42:34.083Z,17.33
2023-05-19T07:45:01.228Z,17.39
2023-05-19T07:47:28.082Z,17.47
2023-05-19T07:49:54.910Z,17.57
2023-05-19T07:52:21.757Z,17.69
2023-05-19T07:54:48.569Z,17.81
2023-05-19T07:57:15.434Z,17.89
2023-05-19T07:59:42.367Z,17.94
2023-05-19T08:02:09.270Z,17.94
2023-05-19T08:04:36.421Z,17.97
2023-05-19T08:07:03.778Z,18.04
2023-05-19T08:09:33.281Z,18.11
2023-05-19T08:12:01.669Z,18.23
2023-05-19T08:14:28.619Z,18.33
2023-05-19T08:16:55.494Z,18.39
2023-05-19T08:19:22.672Z,18.46
2023-05-19T08:21:49.722Z,18.56
2023-05-19T08:24:16.619Z,18.60
2023-05-19T08:26:44.396Z,18.62
2023-05-19T08:29:11.269Z,18.64
2023-05-19T08:31:38.174Z,18.72
2023-05-19T08:34:05.120Z,18.81
2023-05-19T08:36:32.174Z,18.91
2023-05-19T08:38:58.985Z,19.03
2023-05-19T08:41:26.395Z,19.11
2023-05-19T08:43:53.301Z,19.16
2023-05-19T08:46:22.150Z,19.20
2023-05-19T08:48:49.624Z,19.29
2023-05-19T08:51:36.397Z,19.41
2023-05-19T08:54:15.773Z,19.42
2023-05-19T08:56:46.625Z,19.46
2023-05-19T08:59:18.287Z,19.48
2023-05-19T09:01:46.304Z,19.51
2023-05-19T09:04:13.631Z,19.53
2023-05-19T09:06:45.157Z,19.56
2023-05-19T09:09:12.256Z,19.59
2023-05-19T09:11:39.073Z,19.64
2023-05-19T09:14:06.319Z,19.71
2023-05-19T09:16:33.899Z,19.74
2023-05-19T09:19:01.180Z,19.74
2023-05-19T09:21:31.945Z,19.73
2023-05-19T09:24:08.374Z,19.69
2023-05-19T09:26:40.290Z,19.63
2023-05-19T09:29:15.973Z,19.63
2023-05-19T09:31:51.489Z,19.64
2023-05-19T09:34:19.237Z,19.67
2023-05-19T09:36:49.601Z,19.70
2023-05-19T09:39:17.957Z,19.77
2023-05-19T09:41:45.234Z,19.88
2023-05-19T09:44:21.308Z,20.02
2023-05-19T09:46:53.374Z,20.13
2023-05-19T09:49:21.693Z,20.20
2023-05-19T09:52:07.745Z,20.32
2023-05-19T09:54:34.885Z,20.36
2023-05-19T09:57:05.530Z,20.40
2023-05-19T09:59:34.185Z,20.40
2023-05-19T10:02:02.404Z,20.42
2023-05-19T10:04:30.887Z,20.45
2023-05-19T10:07:05.367Z,20.50
2023-05-19T10:09:32.309Z,20.50
2023-05-19T10:11:59.475Z,20.58
2023-05-19T10:14:29.149Z,20.70
2023-05-19T10:16:59.092Z,20.77
2023-05-19T10:19:29.600Z,20.87
2023-05-19T10:21:56.904Z,20.94
2023-05-19T10:24:23.835Z,21.01
2023-05-19T10:27:07.816Z,21.07
2023-05-19T10:29:40.046Z,21.02
2023-05-19T10:32:16.794Z,21.02
2023-05-19T10:35:32.529Z,21.05
2023-05-19T10:38:14.336Z,21.09
2023-05-19T10:41:01.213Z,21.10
2023-05-19T10:43:52.141Z,21.08
2023-05-19T10:46:23.646Z,21.06
2023-05-19T10:48:51.479Z,21.08
2023-05-19T10:51:18.409Z,21.09
2023-05-19T10:53:50.099Z,21.11
2023-05-19T10:56:35.965Z,21.16
2023-05-19T10:59:03.722Z,21.16
2023-05-19T11:01:33.321Z,21.17
2023-05-19T11:04:12.069Z,21.28
2023-05-19T11:06:40.327Z,21.36
2023-05-19T11:09:22.472Z,21.44
2023-05-19T11:11:55.461Z,21.49
2023-05-19T11:14:26.671Z,21.54
2023-05-19T11:16:58.231Z,21.63
2023-05-19T11:19:30.737Z,21.77
2023-05-19T11:22:10.015Z,21.97
2023-05-19T11:24:44.458Z,22.13
2023-05-19T11:27:33.232Z,22.35
2023-05-19T11:30:09.539Z,22.51
2023-05-19T11:32:39.272Z,22.67
2023-05-19T11:35:08.133Z,22.82
2023-05-19T11:37:35.802Z,22.89
2023-05-19T11:40:07.179Z,22.95
2023-05-19T11:42:35.472Z,23.05
2023-05-19T11:45:03.367Z,23.16
2023-05-19T11:47:42.060Z,23.28
2023-05-19T11:50:14.319Z,23.35
2023-05-19T11:52:46.218Z,23.39
2023-05-19T11:55:23.800Z,23.46
2023-05-19T11:58:05.191Z,23.48
2023-05-19T12:00:39.441Z,23.47
2023-05-19T12:03:07.829Z,23.39
2023-05-19T12:05:43.239Z,23.27
2023-05-19T12:08:11.790Z,23.18
2023-05-19T12:10:40.172Z,23.19
2023-05-19T12:13:10.645Z,23.31
2023-05-19T12:15:39.116Z,23.42
2023-05-19T12:18:06.558Z,23.48
2023-05-19T12:20:35.518Z,23.57
2023-05-19T12:23:03.196Z,23.56
2023-05-19T12:25:31.361Z,23.56
2023-05-19T12:28:03.079Z,23.60
2023-05-19T12:30:32.372Z,23.54
2023-05-19T12:33:00.058Z,23.47
2023-05-19T12:35:34.434Z,23.42
2023-05-19T12:38:05.171Z,23.36
2023-05-19T12:40:34.239Z,23.36
2023-05-19T12:43:01.403Z,23.30
2023-05-19T12:45:28.760Z,23.24
2023-05-19T12:47:56.198Z,23.18
2023-05-19T12:50:31.149Z,23.14
2023-05-19T12:52:59.947Z,23.08
2023-05-19T12:55:27.057Z,23.13
2023-05-19T12:57:56.854Z,23.21
2023-05-19T13:00:32.462Z,23.33
2023-05-19T13:03:07.763Z,23.51
2023-05-19T13:05:39.715Z,23.62
2023-05-19T13:08:09.134Z,23.66
2023-05-19T13:10:38.297Z,23.66
2023-05-19T13:13:07.284Z,23.63
2023-05-19T13:15:37.863Z,23.59
2023-05-19T13:18:08.715Z,23.56
2023-05-19T13:20:37.633Z,23.53
2023-05-19T13:23:05.722Z,23.48
2023-05-19T13:25:36.071Z,23.44
2023-05-19T13:28:06.505Z,23.42
2023-05-19T13:30:35.660Z,23.47
2023-05-19T13:33:03.062Z,23.51
2023-05-19T13:35:31.284Z,23.62
2023-05-19T13:37:58.353Z,23.73
2023-05-19T13:40:28.026Z,23.81
2023-05-19T13:42:55.041Z,23.80
2023-05-19T13:45:21.851Z,23.76
2023-05-19T13:47:49.213Z,23.73
2023-05-19T13:50:16.083Z,23.79
2023-05-19T13:52:43.067Z,23.81
2023-05-19T13:55:10.015Z,23.80
2023-05-19T13:57:36.978Z,23.81
2023-05-19T14:00:05.411Z,23.79
2023-05-19T14:02:33.779Z,23.82
2023-05-19T14:05:00.708Z,23.86
2023-05-19T14:07:28.306Z,23.88
2023-05-19T14:09:55.271Z,23.94
2023-05-19T14:12:25.589Z,24.06
2023-05-19T14:17:28.406Z,24.09
2023-05-19T14:19:55.834Z,24.05
2023-05-19T14:22:22.698Z,24.00
2023-05-19T14:24:49.660Z,23.95
2023-05-19T14:27:16.710Z,23.88
2023-05-19T14:29:43.875Z,23.85
2023-05-19T14:32:10.871Z,23.87
2023-05-19T14:34:37.750Z,23.90
2023-05-19T14:37:04.706Z,23.89
2023-05-19T14:39:31.568Z,23.90
2023-05-19T14:42:01.356Z,23.90
2023-05-19T14:44:35.040Z,23.90
2023-05-19T14:47:02.592Z,23.89
2023-05-19T14:49:30.110Z,23.85
2023-05-19T14:51:57.016Z,23.83
2023-05-19T14:54:23.877Z,23.81
2023-05-19T14:56:50.716Z,23.79
2023-05-19T14:59:17.633Z,23.80
2023-05-19T15:01:44.569Z,23.80
2023-05-19T15:04:11.535Z,23.79
2023-05-19T15:06:38.397Z,23.80
2023-05-19T15:09:05.428Z,23.85
2023-05-19T15:11:32.260Z,23.90
2023-05-19T15:13:59.074Z,23.87
2023-05-19T15:16:26.085Z,23.81
2023-05-19T15:18:53.013Z,23.77
2023-05-19T15:21:19.898Z,23.75
2023-05-19T15:23:47.591Z,23.75
2023-05-19T15:26:14.458Z,23.78
2023-05-19T15:28:41.393Z,23.83
2023-05-19T15:31:08.383Z,23.87
2023-05-19T15:33:35.435Z,23.91
2023-05-19T15:36:02.241Z,23.94
2023-05-19T15:38:30.103Z,23.95
2023-05-19T15:40:57.628Z,23.97
2023-05-19T15:43:25.196Z,23.98
2023-05-19T15:45:54.899Z,24.01
2023-05-19T15:48:21.758Z,24.02
2023-05-19T15:50:48.768Z,24.06
2023-05-19T15:53:15.668Z,24.13
2023-05-19T15:55:42.481Z,24.18
2023-05-19T15:58:09.315Z,24.28
2023-05-19T16:00:36.255Z,24.34
2023-05-19T16:03:03.208Z,24.38
2023-05-19T16:05:30.148Z,24.38
2023-05-19T16:07:57.017Z,24.37
2023-05-19T16:10:23.887Z,24.36
2023-05-19T16:12:50.695Z,24.34
2023-05-19T16:15:17.624Z,24.28
2023-05-19T16:17:44.598Z,24.22
2023-05-19T16:20:11.729Z,24.16
2023-05-19T16:22:38.651Z,24.08
2023-05-19T16:25:06.369Z,24.04
2023-05-19T16:27:33.212Z,24.01
2023-05-19T16:30:01.142Z,23.97
2023-05-19T16:32:28.095Z,23.95
2023-05-19T16:34:54.947Z,23.92
2023-05-19T16:37:21.888Z,23.91
2023-05-19T16:39:48.823Z,23.91
2023-05-19T16:42:15.726Z,23.90
2023-05-19T16:44:45.375Z,23.89
2023-05-19T16:47:12.244Z,23.85
2023-05-19T16:49:40.767Z,23.83
2023-05-19T16:52:07.989Z,23.82
2023-05-19T16:54:35.028Z,23.80
2023-05-19T16:57:02.239Z,23.80
2023-05-19T16:59:29.083Z,23.82
2023-05-19T17:01:58.934Z,23.84
2023-05-19T17:04:27.060Z,23.83
2023-05-19T17:06:55.479Z,23.83
2023-05-19T17:09:25.089Z,23.84
2023-05-19T17:11:53.759Z,23.82
2023-05-19T17:14:23.454Z,23.81
2023-05-19T17:16:52.304Z,23.77
2023-05-19T17:19:19.282Z,23.76
2023-05-19T17:21:46.301Z,23.74
2023-05-19T17:24:13.185Z,23.72
2023-05-19T17:26:40.227Z,23.69
2023-05-19T17:29:08.329Z,23.67
2023-05-19T17:31:35.214Z,23.66
2023-05-19T17:34:02.077Z,23.64
2023-05-19T17:36:28.988Z,23.63
2023-05-19T17:38:55.853Z,23.63
2023-05-19T17:41:22.757Z,23.59
2023-05-19T17:43:49.653Z,23.56
2023-05-19T17:46:16.552Z,23.55
2023-05-19T17:48:43.854Z,23.49
2023-05-19T17:51:11.359Z,23.47
2023-05-19T17:53:38.472Z,23.46
2023-05-19T17:56:08.806Z,23.44
2023-05-19T17:58:36.330Z,23.43
2023-05-19T18:01:03.263Z,23.40
2023-05-19T18:03:30.748Z,23.38
2023-05-19T18:05:58.774Z,23.37
2023-05-19T18:08:26.131Z,23.35
2023-05-19T18:10:54.036Z,23.33
2023-05-19T18:13:21.886Z,23.33
2023-05-19T18:15:49.246Z,23.33
2023-05-19T18:18:16.262Z,23.33
2023-05-19T18:20:45.480Z,23.33
2023-05-19T18:23:12.579Z,23.32
2023-05-19T18:25:39.560Z,23.29
2023-05-19T18:28:06.436Z,23.28
2023-05-19T18:30:33.532Z,23.25
2023-05-19T18:33:03.351Z,23.24
2023-05-19T18:35:30.271Z,23.21
2023-05-19T18:37:57.318Z,23.18
2023-05-19T18:40:24.551Z,23.16
2023-05-19T18:42:51.445Z,23.14
2023-05-19T18:45:18.409Z,23.13
2023-05-19T18:47:45.796Z,23.10
2023-05-19T18:50:12.977Z,23.09
2023-05-19T18:52:40.867Z,23.07
2023-05-19T18:55:08.237Z,23.04
2023-05-19T18:57:35.072Z,23.01
2023-05-19T19:00:02.026Z,22.99
2023-05-19T19:02:28.884Z,22.95
2023-05-19T19:04:55.802Z,22.92
2023-05-19T19:07:25.059Z,22.87
2023-05-19T19:09:51.864Z,22.83
2023-05-19T19:12:20.386Z,22.80
2023-05-19T19:14:47.549Z,22.76
2023-05-19T19:17:14.570Z,22.71
2023-05-19T19:19:41.604Z,22.67
2023-05-19T19:22:08.604Z,22.62
2023-05-19T19:24:35.811Z,22.58
2023-05-19T19:27:02.692Z,22.52
2023-05-19T19:29:29.819Z,22.48
2023-05-19T19:31:56.664Z,22.45
2023-05-19T19:34:23.541Z,22.40
2023-05-19T19:36:50.581Z,22.35
2023-05-19T19:39:17.443Z,22.31
2023-05-19T19:41:44.369Z,22.25
2023-05-19T19:44:11.251Z,22.20
2023-05-19T19:46:38.159Z,22.16
2023-05-19T19:49:05.186Z,22.11
2023-05-19T19:51:32.046Z,22.08
2023-05-19T19:53:59.276Z,22.04
2023-05-19T19:56:27.404Z,22.00
2023-05-19T19:58:56.776Z,21.93
2023-05-19T20:01:27.436Z,21.91
2023-05-19T20:03:55.520Z,21.86
2023-05-19T20:06:22.623Z,21.83
2023-05-19T20:08:50.133Z,21.78
2023-05-19T20:11:17.323Z,21.76
2023-05-19T20:13:44.142Z,21.72
2023-05-19T20:16:11.158Z,21.68
2023-05-19T20:18:38.592Z,21.64
2023-05-19T20:21:05.554Z,21.58
2023-05-19T20:23:32.472Z,21.56
2023-05-19T20:26:11.971Z,21.53
2023-05-19T20:28:39.810Z,21.50
2023-05-19T20:31:06.808Z,21.46
2023-05-19T20:33:34.802Z,21.41
2023-05-19T20:36:01.613Z,21.36
2023-05-19T20:38:28.488Z,21.32
2023-05-19T20:40:55.571Z,21.29
2023-05-19T20:43:22.362Z,21.24
2023-05-19T20:45:49.298Z,21.22
2023-05-19T20:48:16.229Z,21.18
2023-05-19T20:50:43.164Z,21.16
2023-05-19T20:53:10.043Z,21.13
2023-05-19T20:55:38.593Z,21.12
2023-05-19T20:58:05.731Z,21.09
2023-05-19T21:00:33.073Z,21.08
2023-05-19T21:03:00.721Z,21.06
2023-05-19T21:05:27.624Z,21.05
2023-05-19T21:07:54.467Z,21.02
2023-05-19T21:10:21.402Z,21.00
2023-05-19T21:12:48.283Z,20.98
2023-05-19T21:15:15.707Z,20.97
2023-05-19T21:17:42.692Z,20.93
2023-05-19T21:20:10.249Z,20.91
2023-05-19T21:22:37.094Z,20.88
2023-05-19T21:25:04.208Z,20.87
2023-05-19T21:27:32.814Z,20.83
2023-05-19T21:29:59.974Z,20.80
2023-05-19T21:32:27.709Z,20.77
2023-05-19T21:34:54.569Z,20.72
2023-05-19T21:37:21.732Z,20.68
2023-05-19T21:39:48.920Z,20.65
2023-05-19T21:42:15.837Z,20.61
2023-05-19T21:44:42.662Z,20.57
2023-05-19T21:47:09.473Z,20.52
2023-05-19T21:49:38.177Z,20.48
2023-05-19T21:52:06.386Z,20.46
2023-05-19T21:54:36.493Z,20.42
2023-05-19T21:57:03.544Z,20.38
2023-05-19T21:59:30.493Z,20.34
2023-05-19T22:01:57.359Z,20.32
2023-05-19T22:04:24.256Z,20.29
2023-05-19T22:06:51.114Z,20.26
2023-05-19T22:09:18.012Z,20.24
2023-05-19T22:11:44.904Z,20.24
2023-05-19T22:14:11.899Z,20.21
2023-05-19T22:16:38.817Z,20.17
2023-05-19T22:19:05.687Z,20.14
2023-05-19T22:21:35.138Z,20.13
2023-05-19T22:24:02.385Z,20.10
2023-05-19T22:26:29.229Z,20.11
2023-05-19T22:28:56.501Z,20.08
2023-05-19T22:31:23.378Z,20.06
2023-05-19T22:33:50.237Z,20.05
2023-05-19T22:36:17.108Z,20.01
2023-05-19T22:38:43.989Z,19.97
2023-05-19T22:41:11.033Z,19.94
2023-05-19T22:43:38.037Z,19.89
2023-05-19T22:46:05.172Z,19.83
2023-05-19T22:48:32.093Z,19.79
2023-05-19T22:50:58.996Z,19.76
2023-05-19T22:53:25.836Z,19.71
2023-05-19T22:55:52.699Z,19.66
2023-05-19T22:58:19.506Z,19.62
2023-05-19T23:00:46.356Z,19.59
2023-05-19T23:03:13.297Z,19.59
2023-05-19T23:05:40.561Z,19.59
2023-05-19T23:08:07.378Z,19.56
2023-05-19T23:10:34.194Z,19.55
2023-05-19T23:13:01.115Z,19.53
2023-05-19T23:15:27.941Z,19.51
2023-05-19T23:17:54.766Z,19.49
2023-05-19T23:20:21.633Z,19.44
2023-05-19T23:22:48.525Z,19.41
2023-05-19T23:25:15.477Z,19.42
2023-05-19T23:27:42.315Z,19.38
2023-05-19T23:30:09.536Z,19.37
2023-05-19T23:32:38.716Z,19.36
2023-05-19T23:35:16.890Z,19.32
2023-05-19T23:37:43.901Z,19.29
2023-05-19T23:40:11.456Z,19.27
2023-05-19T23:42:38.470Z,19.24
2023-05-19T23:45:06.160Z,19.22
2023-05-19T23:47:33.046Z,19.20
2023-05-19T23:49:59.904Z,19.21
2023-05-19T23:52:26.946Z,19.19
2023-05-19T23:54:53.757Z,19.17
2023-05-19T23:57:20.550Z,19.14
2023-05-19T23:59:47.483Z,19.12
